Phoenix, Arizona
Traffic Map
Current Weather Conditions
Phoenix, Arizona
Scattered Clouds
Scattered Clouds
76°
Feels Like: 76°
Wind Chill: 76° Ceiling: Unl
Heat Index: 76° Visibility: 10mi
Dew Point: 41° Wind: 15mph
Humidity: 29% Direction: 270° (W)
Pressure: 29.75in Gusts: 20mph
Raw Report DataKPHX 062351Z 27013G17KT 10SM FEW040 SCT060 SCT095 SCT150 24/05 A2975 RMK AO2 SLP061 CB DSNT NW T02440050 10267 20228 56017
Traffic Incident Summary
Active as of:
Severity:
Category:
InformationThere was an issue retrieving the traffic information for this location. Please try a different location or try again shortly.
Advertisements
Track Severe Weather on mobile